createdAt,value
2022-11-29T00:00:48.242Z,100607.00
2022-11-29T00:03:15.550Z,100608.00
2022-11-29T00:05:42.155Z,100604.00
2022-11-29T00:08:08.672Z,100613.00
2022-11-29T00:10:38.009Z,100609.00
2022-11-29T00:13:04.867Z,100613.00
2022-11-29T00:15:35.716Z,100615.00
2022-11-29T00:18:02.306Z,100601.00
2022-11-29T00:20:28.862Z,100610.00
2022-11-29T00:22:55.386Z,100617.00
2022-11-29T00:25:21.916Z,100606.00
2022-11-29T00:27:48.520Z,100605.00
2022-11-29T00:30:15.065Z,100601.00
2022-11-29T00:32:41.627Z,100604.00
2022-11-29T00:35:09.776Z,100606.00
2022-11-29T00:37:36.558Z,100607.00
2022-11-29T00:40:04.414Z,100602.00
2022-11-29T00:42:31.161Z,100613.00
2022-11-29T00:44:57.766Z,100599.00
2022-11-29T00:47:24.414Z,100604.00
2022-11-29T00:49:51.013Z,100592.00
2022-11-29T00:52:17.587Z,100596.00
2022-11-29T00:54:44.386Z,100600.00
2022-11-29T00:57:11.180Z,100598.00
2022-11-29T00:59:37.704Z,100600.00
2022-11-29T01:02:04.350Z,100600.00
2022-11-29T01:04:30.972Z,100598.00
2022-11-29T01:06:57.584Z,100602.00
2022-11-29T01:09:24.150Z,100607.00
2022-11-29T01:11:50.904Z,100597.00
2022-11-29T01:14:17.507Z,100607.00
2022-11-29T01:16:44.074Z,100616.00
2022-11-29T01:19:10.796Z,100604.00
2022-11-29T01:21:37.549Z,100612.00
2022-11-29T01:24:04.397Z,100606.00
2022-11-29T01:26:31.656Z,100609.00
2022-11-29T01:28:59.044Z,100612.00
2022-11-29T01:31:28.514Z,100611.00
2022-11-29T01:33:56.346Z,100616.00
2022-11-29T01:36:23.847Z,100612.00
2022-11-29T01:38:50.536Z,100615.00
2022-11-29T01:41:20.235Z,100610.00
2022-11-29T01:43:52.835Z,100613.00
2022-11-29T01:46:19.478Z,100595.00
2022-11-29T01:48:46.119Z,100612.00
2022-11-29T01:51:12.658Z,100608.00
2022-11-29T01:53:39.499Z,100617.00
2022-11-29T01:56:06.581Z,100615.00
2022-11-29T01:58:33.446Z,100605.00
2022-11-29T02:01:01.212Z,100595.00
2022-11-29T02:03:27.855Z,100606.00
2022-11-29T02:05:55.057Z,100600.00
2022-11-29T02:08:25.461Z,100603.00
2022-11-29T02:11:15.245Z,100603.00
2022-11-29T02:14:20.359Z,100600.00
2022-11-29T02:16:56.571Z,100599.00
2022-11-29T02:19:48.483Z,100607.00
2022-11-29T02:22:31.633Z,100600.00
2022-11-29T02:25:12.887Z,100607.00
2022-11-29T02:27:57.453Z,100614.00
2022-11-29T02:30:39.279Z,100601.00
2022-11-29T02:33:47.296Z,100606.00
2022-11-29T02:36:16.824Z,100613.00
2022-11-29T02:38:43.384Z,100616.00
2022-11-29T02:41:27.946Z,100613.00
2022-11-29T02:44:31.244Z,100619.00
2022-11-29T02:47:28.772Z,100617.00
2022-11-29T02:50:13.511Z,100611.00
2022-11-29T02:52:39.999Z,100620.00
2022-11-29T02:55:15.140Z,100621.00
2022-11-29T02:57:55.096Z,100621.00
2022-11-29T03:00:23.046Z,100626.00
2022-11-29T03:03:14.309Z,100616.00
2022-11-29T03:05:47.162Z,100624.00
2022-11-29T03:08:32.634Z,100631.00
2022-11-29T03:11:24.941Z,100624.00
2022-11-29T03:14:15.419Z,100624.00
2022-11-29T03:17:10.654Z,100630.00
2022-11-29T03:20:19.074Z,100633.00
2022-11-29T03:22:48.515Z,100634.00
2022-11-29T03:25:24.296Z,100644.00
2022-11-29T03:27:55.978Z,100641.00
2022-11-29T03:30:22.782Z,100636.00
2022-11-29T03:32:56.974Z,100640.00
2022-11-29T03:35:58.533Z,100640.00
2022-11-29T03:38:30.323Z,100650.00
2022-11-29T03:41:18.342Z,100650.00
2022-11-29T03:44:00.094Z,100648.00
2022-11-29T03:46:33.496Z,100650.00
2022-11-29T03:49:13.011Z,100649.00
2022-11-29T03:51:57.232Z,100636.00
2022-11-29T03:54:38.326Z,100651.00
2022-11-29T03:57:06.097Z,100650.00
2022-11-29T03:59:52.014Z,100645.00
2022-11-29T04:02:34.217Z,100642.00
2022-11-29T04:05:16.050Z,100652.00
2022-11-29T04:08:10.674Z,100649.00
2022-11-29T04:11:17.143Z,100647.00
2022-11-29T04:14:28.214Z,100647.00
2022-11-29T04:17:50.213Z,100652.00
2022-11-29T04:20:44.210Z,100648.00
2022-11-29T04:23:26.383Z,100651.00
2022-11-29T04:25:55.952Z,100658.00
2022-11-29T04:28:41.448Z,100660.00
2022-11-29T04:31:33.251Z,100659.00
2022-11-29T04:34:03.296Z,100658.00
2022-11-29T04:36:54.492Z,100655.00
2022-11-29T04:39:43.750Z,100656.00
2022-11-29T04:42:10.599Z,100656.00
2022-11-29T04:44:57.901Z,100667.00
2022-11-29T04:47:42.715Z,100658.00
2022-11-29T04:50:32.694Z,100673.00
2022-11-29T04:53:32.960Z,100663.00
2022-11-29T04:56:20.567Z,100665.00
2022-11-29T04:59:08.847Z,100675.00
2022-11-29T05:01:54.644Z,100668.00
2022-11-29T05:04:23.243Z,100671.00
2022-11-29T05:06:49.721Z,100676.00
2022-11-29T05:09:32.123Z,100679.00
2022-11-29T05:12:21.178Z,100672.00
2022-11-29T05:15:09.314Z,100668.00
2022-11-29T05:17:44.873Z,100675.00
2022-11-29T05:20:26.571Z,100675.00
2022-11-29T05:23:27.030Z,100681.00
2022-11-29T05:26:09.891Z,100685.00
2022-11-29T05:28:45.614Z,100686.00
2022-11-29T05:31:32.019Z,100694.00
2022-11-29T05:34:16.548Z,100696.00
2022-11-29T05:37:12.677Z,100705.00
2022-11-29T05:40:22.402Z,100710.00
2022-11-29T05:43:00.901Z,100705.00
2022-11-29T05:45:49.682Z,100710.00
2022-11-29T05:48:37.537Z,100715.00
2022-11-29T05:51:07.157Z,100709.00
2022-11-29T05:53:44.628Z,100708.00
2022-11-29T05:56:16.739Z,100714.00
2022-11-29T05:58:48.572Z,100712.00
2022-11-29T06:01:24.560Z,100720.00
2022-11-29T06:04:10.341Z,100711.00
2022-11-29T06:06:45.056Z,100719.00
2022-11-29T06:09:48.714Z,100724.00
2022-11-29T06:12:23.963Z,100729.00
2022-11-29T06:15:13.638Z,100731.00
2022-11-29T06:18:01.603Z,100731.00
2022-11-29T06:20:46.519Z,100735.00
2022-11-29T06:23:31.523Z,100738.00
2022-11-29T06:26:13.069Z,100739.00
2022-11-29T06:29:02.980Z,100744.00
2022-11-29T06:31:34.745Z,100738.00
2022-11-29T06:34:12.640Z,100747.00
2022-11-29T06:37:08.743Z,100757.00
2022-11-29T06:39:35.786Z,100742.00
2022-11-29T06:42:02.480Z,100750.00
2022-11-29T06:44:29.284Z,100752.00
2022-11-29T06:47:07.150Z,100741.00
2022-11-29T06:49:42.951Z,100762.00
2022-11-29T06:52:36.066Z,100767.00
2022-11-29T06:55:20.138Z,100765.00
2022-11-29T06:58:11.283Z,100770.00
2022-11-29T07:00:57.456Z,100776.00
2022-11-29T07:03:32.987Z,100779.00
2022-11-29T07:06:08.630Z,100775.00
2022-11-29T07:08:35.739Z,100777.00
2022-11-29T07:11:02.610Z,100769.00
2022-11-29T07:13:29.431Z,100778.00
2022-11-29T07:16:21.951Z,100781.00
2022-11-29T07:18:57.766Z,100783.00
2022-11-29T07:21:27.275Z,100789.00
2022-11-29T07:23:59.696Z,100788.00
2022-11-29T07:27:05.884Z,100790.00
2022-11-29T07:29:49.628Z,100780.00
2022-11-29T07:32:47.287Z,100791.00
2022-11-29T07:35:28.603Z,100792.00
2022-11-29T07:38:46.461Z,100795.00
2022-11-29T07:41:34.587Z,100806.00
2022-11-29T07:44:06.632Z,100796.00
2022-11-29T07:46:33.240Z,100804.00
2022-11-29T07:48:59.767Z,100805.00
2022-11-29T07:51:26.263Z,100808.00
2022-11-29T07:53:52.780Z,100806.00
2022-11-29T07:56:19.861Z,100812.00
2022-11-29T07:58:46.697Z,100810.00
2022-11-29T08:01:13.351Z,100816.00
2022-11-29T08:03:42.085Z,100812.00
2022-11-29T08:06:08.716Z,100816.00
2022-11-29T08:08:39.238Z,100814.00
2022-11-29T08:11:14.765Z,100815.00
2022-11-29T08:13:41.364Z,100819.00
2022-11-29T08:16:08.656Z,100827.00
2022-11-29T08:18:38.330Z,100831.00
2022-11-29T08:21:08.264Z,100834.00
2022-11-29T08:23:34.809Z,100826.00
2022-11-29T08:26:05.468Z,100825.00
2022-11-29T08:28:32.044Z,100823.00
2022-11-29T08:31:07.108Z,100821.00
2022-11-29T08:33:42.319Z,100833.00
2022-11-29T08:36:11.423Z,100823.00
2022-11-29T08:38:38.304Z,100831.00
2022-11-29T08:41:06.508Z,100834.00
2022-11-29T08:43:33.136Z,100829.00
2022-11-29T08:46:00.011Z,100830.00
2022-11-29T08:48:26.840Z,100838.00
2022-11-29T08:50:56.730Z,100827.00
2022-11-29T08:53:42.181Z,100834.00
2022-11-29T08:56:49.357Z,100827.00
2022-11-29T08:58:58.197Z,100824.00
2022-11-29T09:01:33.068Z,100833.00
2022-11-29T09:03:59.734Z,100839.00
2022-11-29T09:06:28.112Z,100846.00
2022-11-29T09:08:56.427Z,100836.00
2022-11-29T09:11:24.500Z,100844.00
2022-11-29T09:13:53.347Z,100846.00
2022-11-29T09:16:22.606Z,100850.00
2022-11-29T09:18:51.903Z,100838.00
2022-11-29T09:21:19.354Z,100847.00
2022-11-29T09:23:46.052Z,100847.00
2022-11-29T09:26:18.881Z,100838.00
2022-11-29T09:28:46.555Z,100849.00
2022-11-29T09:31:15.002Z,100858.00
2022-11-29T09:33:42.317Z,100850.00
2022-11-29T09:36:11.929Z,100858.00
2022-11-29T09:38:39.245Z,100851.00
2022-11-29T09:41:20.970Z,100851.00
2022-11-29T09:44:03.776Z,100860.00
2022-11-29T09:46:33.266Z,100854.00
2022-11-29T09:49:24.446Z,100861.00
2022-11-29T09:52:18.849Z,100855.00
2022-11-29T09:54:49.379Z,100852.00
2022-11-29T09:57:17.475Z,100862.00
2022-11-29T09:59:47.787Z,100858.00
2022-11-29T10:02:21.650Z,100856.00
2022-11-29T10:04:56.207Z,100859.00
2022-11-29T10:07:28.071Z,100870.00
2022-11-29T10:10:03.654Z,100869.00
2022-11-29T10:12:49.334Z,100867.00
2022-11-29T10:15:30.382Z,100860.00
2022-11-29T10:18:03.990Z,100868.00
2022-11-29T10:20:42.479Z,100871.00
2022-11-29T10:23:24.449Z,100871.00
2022-11-29T10:25:53.160Z,100867.00
2022-11-29T10:28:29.022Z,100870.00
2022-11-29T10:30:56.932Z,100861.00
2022-11-29T10:33:33.417Z,100860.00
2022-11-29T10:36:06.910Z,100873.00
2022-11-29T10:38:33.441Z,100875.00
2022-11-29T10:41:06.865Z,100856.00
2022-11-29T10:43:33.503Z,100872.00
2022-11-29T10:46:00.263Z,100876.00
2022-11-29T10:48:31.587Z,100858.00
2022-11-29T10:50:58.460Z,100873.00
2022-11-29T10:53:33.199Z,100875.00
2022-11-29T10:56:18.432Z,100870.00
2022-11-29T10:58:58.415Z,100870.00
2022-11-29T11:01:28.854Z,100874.00
2022-11-29T11:03:57.526Z,100867.00
2022-11-29T11:06:44.817Z,100877.00
2022-11-29T11:09:34.089Z,100875.00
2022-11-29T11:12:06.244Z,100878.00
2022-11-29T11:14:37.435Z,100873.00
2022-11-29T11:17:26.592Z,100873.00
2022-11-29T11:20:23.787Z,100865.00
2022-11-29T11:23:03.485Z,100886.00
2022-11-29T11:25:50.055Z,100883.00
2022-11-29T11:28:20.433Z,100879.00
2022-11-29T11:31:08.287Z,100890.00
2022-11-29T11:33:37.869Z,100890.00
2022-11-29T11:36:06.393Z,100890.00
2022-11-29T11:38:34.950Z,100894.00
2022-11-29T11:41:12.428Z,100890.00
2022-11-29T11:43:39.425Z,100884.00
2022-11-29T11:46:08.064Z,100889.00
2022-11-29T11:48:35.086Z,100879.00
2022-11-29T11:51:02.015Z,100886.00
2022-11-29T11:53:35.729Z,100879.00
2022-11-29T11:56:09.418Z,100890.00
2022-11-29T11:58:56.607Z,100902.00
2022-11-29T12:01:39.064Z,100897.00
2022-11-29T12:04:29.709Z,100897.00
2022-11-29T12:07:02.969Z,100895.00
2022-11-29T12:09:45.032Z,100894.00
2022-11-29T12:12:24.138Z,100896.00
2022-11-29T12:14:53.679Z,100908.00
2022-11-29T12:17:42.243Z,100899.00
2022-11-29T12:20:25.305Z,100907.00
2022-11-29T12:23:13.073Z,100905.00
2022-11-29T12:26:02.647Z,100904.00
2022-11-29T12:28:32.713Z,100912.00
2022-11-29T12:31:36.393Z,100902.00
2022-11-29T12:34:07.126Z,100909.00
2022-11-29T12:36:42.880Z,100908.00
2022-11-29T12:39:19.866Z,100901.00
2022-11-29T12:41:51.006Z,100920.00
2022-11-29T12:44:24.345Z,100917.00
2022-11-29T12:50:05.132Z,100915.00
2022-11-29T12:52:47.789Z,100927.00
2022-11-29T12:55:25.236Z,100929.00
2022-11-29T12:58:00.928Z,100936.00
2022-11-29T13:00:34.729Z,100929.00
2022-11-29T13:03:18.089Z,100937.00
2022-11-29T13:06:10.924Z,100935.00
2022-11-29T13:09:16.683Z,100947.00
2022-11-29T13:12:15.057Z,100937.00
2022-11-29T13:14:57.371Z,100945.00
2022-11-29T13:17:59.429Z,100937.00
2022-11-29T13:20:30.932Z,100937.00
2022-11-29T13:23:45.950Z,100945.00
2022-11-29T13:26:22.959Z,100941.00
2022-11-29T13:28:50.354Z,100945.00
2022-11-29T13:31:22.446Z,100944.00
2022-11-29T13:33:52.128Z,100946.00
2022-11-29T13:36:21.424Z,100948.00
2022-11-29T13:39:14.370Z,100949.00
2022-11-29T13:41:48.855Z,100944.00
2022-11-29T13:44:31.622Z,100947.00
2022-11-29T13:47:04.400Z,100950.00
2022-11-29T13:49:54.809Z,100949.00
2022-11-29T13:52:46.772Z,100957.00
2022-11-29T13:55:14.356Z,100955.00
2022-11-29T13:58:15.436Z,100955.00
2022-11-29T14:00:43.858Z,100948.00
2022-11-29T14:03:27.825Z,100961.00
2022-11-29T14:06:22.747Z,100950.00
2022-11-29T14:09:17.719Z,100954.00
2022-11-29T14:11:41.815Z,100957.00
2022-11-29T14:14:10.484Z,100963.00
2022-11-29T14:16:48.323Z,100962.00
2022-11-29T14:19:33.975Z,100963.00
2022-11-29T14:22:06.916Z,100965.00
2022-11-29T14:24:36.245Z,100965.00
2022-11-29T14:27:06.025Z,100966.00
2022-11-29T14:29:47.765Z,100966.00
2022-11-29T14:32:46.338Z,100966.00
2022-11-29T14:35:21.445Z,100967.00
2022-11-29T14:38:09.697Z,100978.00
2022-11-29T14:40:42.372Z,100974.00
2022-11-29T14:43:38.185Z,100980.00
2022-11-29T14:46:15.302Z,100984.00
2022-11-29T14:48:45.492Z,100985.00
2022-11-29T14:51:16.066Z,100984.00
2022-11-29T14:53:43.905Z,100980.00
2022-11-29T14:56:29.100Z,100981.00
2022-11-29T14:59:33.424Z,100989.00
2022-11-29T15:02:01.816Z,100986.00
2022-11-29T15:04:35.388Z,101001.00
2022-11-29T15:07:03.020Z,100987.00
2022-11-29T15:09:32.477Z,101000.00
2022-11-29T15:12:03.533Z,100996.00
2022-11-29T15:14:30.271Z,101003.00
2022-11-29T15:17:32.930Z,100995.00
2022-11-29T15:20:36.185Z,100987.00
2022-11-29T15:23:14.988Z,100999.00
2022-11-29T15:26:14.883Z,100998.00
2022-11-29T15:28:41.460Z,100997.00
2022-11-29T15:31:10.039Z,101004.00
2022-11-29T15:33:39.568Z,101008.00
2022-11-29T15:36:17.822Z,101004.00
2022-11-29T15:38:52.809Z,101015.00
2022-11-29T15:41:26.707Z,101020.00
2022-11-29T15:43:56.970Z,101021.00
2022-11-29T15:46:28.734Z,101022.00
2022-11-29T15:49:21.432Z,101019.00
2022-11-29T15:51:58.696Z,101022.00
2022-11-29T15:54:44.010Z,101032.00
2022-11-29T15:57:39.244Z,101036.00
2022-11-29T16:00:07.890Z,101031.00
2022-11-29T16:02:37.139Z,101036.00
2022-11-29T16:05:21.383Z,101036.00
2022-11-29T16:08:25.581Z,101044.00
2022-11-29T16:10:55.664Z,101018.00
2022-11-29T16:13:32.143Z,101044.00
2022-11-29T16:16:21.982Z,101050.00
2022-11-29T16:18:51.272Z,101051.00
2022-11-29T16:21:29.367Z,101058.00
2022-11-29T16:24:13.519Z,101049.00
2022-11-29T16:26:43.957Z,101054.00
2022-11-29T16:29:30.415Z,101057.00
2022-11-29T16:32:09.314Z,101061.00
2022-11-29T16:34:37.570Z,101060.00
2022-11-29T16:37:11.228Z,101054.00
2022-11-29T16:39:38.435Z,101073.00
2022-11-29T16:42:20.546Z,101069.00
2022-11-29T16:44:50.379Z,101069.00
2022-11-29T16:47:24.876Z,101080.00
2022-11-29T16:50:09.979Z,101076.00
2022-11-29T16:52:36.946Z,101083.00
2022-11-29T16:55:04.496Z,101072.00
2022-11-29T16:57:31.923Z,101080.00
2022-11-29T17:00:01.702Z,101067.00
2022-11-29T17:02:33.170Z,101081.00
2022-11-29T17:05:01.189Z,101075.00
2022-11-29T17:07:32.734Z,101072.00
2022-11-29T17:09:59.799Z,101088.00
2022-11-29T17:12:26.343Z,101083.00
2022-11-29T17:14:52.937Z,101080.00
2022-11-29T17:17:19.723Z,101077.00
2022-11-29T17:19:48.995Z,101082.00
2022-11-29T17:22:15.591Z,101084.00
2022-11-29T17:24:47.751Z,101087.00
2022-11-29T17:27:15.068Z,101095.00
2022-11-29T17:29:42.230Z,101102.00
2022-11-29T17:32:12.037Z,101093.00
2022-11-29T17:34:38.892Z,101101.00
2022-11-29T17:37:05.684Z,101100.00
2022-11-29T17:39:32.916Z,101101.00
2022-11-29T17:41:59.617Z,101099.00
2022-11-29T17:44:26.582Z,101103.00
2022-11-29T17:46:59.158Z,101104.00
2022-11-29T17:49:27.137Z,101113.00
2022-11-29T17:51:54.163Z,101111.00
2022-11-29T17:54:53.021Z,101108.00
2022-11-29T17:57:12.322Z,101113.00
2022-11-29T17:59:45.758Z,101115.00
2022-11-29T18:02:13.051Z,101117.00
2022-11-29T18:04:42.905Z,101121.00
2022-11-29T18:07:09.719Z,101117.00
2022-11-29T18:09:36.542Z,101121.00
2022-11-29T18:12:04.398Z,101128.00
2022-11-29T18:14:31.891Z,101118.00
2022-11-29T18:16:58.636Z,101124.00
2022-11-29T18:19:33.818Z,101127.00
2022-11-29T18:22:01.020Z,101128.00
2022-11-29T18:24:33.952Z,101131.00
2022-11-29T18:27:01.204Z,101142.00
2022-11-29T18:29:31.542Z,101134.00
2022-11-29T18:32:02.483Z,101137.00
2022-11-29T18:34:29.298Z,101129.00
2022-11-29T18:36:56.240Z,101134.00
2022-11-29T18:39:25.386Z,101140.00
2022-11-29T18:41:52.069Z,101139.00
2022-11-29T18:44:20.219Z,101143.00
2022-11-29T18:46:47.275Z,101143.00
2022-11-29T18:49:16.348Z,101149.00
2022-11-29T18:51:44.782Z,101146.00
2022-11-29T18:54:13.045Z,101132.00
2022-11-29T18:56:43.717Z,101148.00
2022-11-29T18:59:16.620Z,101142.00
2022-11-29T19:01:45.059Z,101142.00
2022-11-29T19:04:14.603Z,101151.00
2022-11-29T19:06:41.331Z,101140.00
2022-11-29T19:09:12.549Z,101133.00
2022-11-29T19:11:39.718Z,101135.00
2022-11-29T19:14:14.067Z,101143.00
2022-11-29T19:16:43.476Z,101141.00
2022-11-29T19:19:10.488Z,101146.00
2022-11-29T19:21:39.120Z,101149.00
2022-11-29T19:24:13.201Z,101147.00
2022-11-29T19:26:39.885Z,101154.00
2022-11-29T19:29:06.614Z,101151.00
2022-11-29T19:31:33.181Z,101154.00
2022-11-29T19:33:59.756Z,101154.00
2022-11-29T19:36:28.633Z,101156.00
2022-11-29T19:38:55.511Z,101160.00
2022-11-29T19:41:26.207Z,101159.00
2022-11-29T19:43:53.634Z,101138.00
2022-11-29T19:46:29.032Z,101157.00
2022-11-29T19:48:56.897Z,101157.00
2022-11-29T19:51:24.364Z,101145.00
2022-11-29T19:53:55.401Z,101151.00
2022-11-29T19:56:22.604Z,101164.00
2022-11-29T19:58:49.724Z,101156.00
2022-11-29T20:01:18.553Z,101160.00
2022-11-29T20:03:45.532Z,101154.00
2022-11-29T20:06:13.581Z,101163.00
2022-11-29T20:08:40.990Z,101171.00
2022-11-29T20:11:15.880Z,101169.00
2022-11-29T20:13:45.550Z,101169.00
2022-11-29T20:16:13.022Z,101180.00
2022-11-29T20:18:45.710Z,101167.00
2022-11-29T20:21:18.288Z,101172.00
2022-11-29T20:23:44.899Z,101177.00
2022-11-29T20:26:16.398Z,101174.00
2022-11-29T20:28:43.437Z,101170.00
2022-11-29T20:31:15.936Z,101179.00
2022-11-29T20:33:43.514Z,101174.00
2022-11-29T20:36:43.977Z,101182.00
2022-11-29T20:39:44.002Z,101175.00
2022-11-29T20:42:29.549Z,101186.00
2022-11-29T20:45:15.538Z,101177.00
2022-11-29T20:48:28.720Z,101180.00
2022-11-29T20:51:02.121Z,101179.00
2022-11-29T20:53:32.779Z,101171.00
2022-11-29T20:55:59.308Z,101183.00
2022-11-29T20:58:26.472Z,101185.00
2022-11-29T21:00:54.519Z,101187.00
2022-11-29T21:03:21.718Z,101190.00
2022-11-29T21:05:48.528Z,101193.00
2022-11-29T21:08:15.976Z,101194.00
2022-11-29T21:10:44.542Z,101197.00
2022-11-29T21:13:12.515Z,101198.00
2022-11-29T21:15:39.822Z,101186.00
2022-11-29T21:18:06.751Z,101194.00
2022-11-29T21:20:33.719Z,101204.00
2022-11-29T21:23:03.127Z,101202.00
2022-11-29T21:25:54.789Z,101193.00
2022-11-29T21:28:25.734Z,101201.00
2022-11-29T21:30:52.744Z,101205.00
2022-11-29T21:33:19.518Z,101206.00
2022-11-29T21:35:46.659Z,101207.00
2022-11-29T21:38:15.051Z,101210.00
2022-11-29T21:40:41.780Z,101207.00
2022-11-29T21:43:08.454Z,101203.00
2022-11-29T21:45:34.980Z,101203.00
2022-11-29T21:48:01.649Z,101202.00
2022-11-29T21:50:28.350Z,101213.00
2022-11-29T21:52:55.995Z,101210.00
2022-11-29T21:55:22.535Z,101218.00
2022-11-29T21:57:49.192Z,101209.00
2022-11-29T22:00:16.172Z,101215.00
2022-11-29T22:02:42.821Z,101215.00
2022-11-29T22:05:09.685Z,101210.00
2022-11-29T22:07:36.381Z,101219.00
2022-11-29T22:10:09.925Z,101219.00
2022-11-29T22:12:45.737Z,101220.00
2022-11-29T22:15:24.172Z,101209.00
2022-11-29T22:17:53.194Z,101216.00
2022-11-29T22:20:20.373Z,101224.00
2022-11-29T22:22:48.582Z,101222.00
2022-11-29T22:25:15.914Z,101219.00
2022-11-29T22:27:42.571Z,101208.00
2022-11-29T22:30:10.418Z,101223.00
2022-11-29T22:32:37.086Z,101213.00
2022-11-29T22:35:03.919Z,101212.00
2022-11-29T22:37:30.457Z,101227.00
2022-11-29T22:39:57.562Z,101233.00
2022-11-29T22:42:24.225Z,101222.00
2022-11-29T22:44:50.837Z,101224.00
2022-11-29T22:47:17.373Z,101232.00
2022-11-29T22:49:44.534Z,101237.00
2022-11-29T22:52:11.151Z,101231.00
2022-11-29T22:54:37.681Z,101240.00
2022-11-29T22:57:04.252Z,101237.00
2022-11-29T22:59:30.892Z,101240.00
2022-11-29T23:01:57.586Z,101242.00
2022-11-29T23:04:24.188Z,101244.00
2022-11-29T23:06:53.736Z,101233.00
2022-11-29T23:09:22.291Z,101241.00
2022-11-29T23:11:53.363Z,101240.00
2022-11-29T23:14:20.719Z,101238.00
2022-11-29T23:16:47.559Z,101231.00
2022-11-29T23:19:16.051Z,101236.00
2022-11-29T23:21:45.380Z,101234.00
2022-11-29T23:24:12.687Z,101232.00
2022-11-29T23:26:44.582Z,101234.00
2022-11-29T23:29:18.774Z,101234.00
2022-11-29T23:31:46.612Z,101228.00
2022-11-29T23:34:13.826Z,101241.00
2022-11-29T23:36:40.359Z,101236.00
2022-11-29T23:39:07.014Z,101230.00
2022-11-29T23:41:34.604Z,101234.00
2022-11-29T23:44:03.621Z,101240.00
2022-11-29T23:46:30.231Z,101241.00
2022-11-29T23:48:56.877Z,101234.00
2022-11-29T23:51:23.491Z,101240.00
2022-11-29T23:53:53.840Z,101242.00
2022-11-29T23:56:21.314Z,101245.00
2022-11-29T23:58:48.068Z,101245.00
